sensor_id;sensor_type;location;lat;lon;timestamp;P1;durP1;ratioP1;P2;durP2;ratioP2
32108;SDS011;18624;50.042;8.436;2022-07-29T00:00:55;1.50;;;1.20;;
32108;SDS011;18624;50.042;8.436;2022-07-29T00:03:21;2.10;;;1.35;;
32108;SDS011;18624;50.042;8.436;2022-07-29T00:05:48;2.45;;;1.70;;
32108;SDS011;18624;50.042;8.436;2022-07-29T00:08:14;6.50;;;2.65;;
32108;SDS011;18624;50.042;8.436;2022-07-29T00:10:41;4.50;;;1.73;;
32108;SDS011;18624;50.042;8.436;2022-07-29T00:13:08;1.85;;;1.50;;
32108;SDS011;18624;50.042;8.436;2022-07-29T00:15:34;2.40;;;1.45;;
32108;SDS011;18624;50.042;8.436;2022-07-29T00:18:01;1.75;;;1.45;;
32108;SDS011;18624;50.042;8.436;2022-07-29T00:20:27;3.78;;;1.55;;
32108;SDS011;18624;50.042;8.436;2022-07-29T00:22:54;2.47;;;1.67;;
32108;SDS011;18624;50.042;8.436;2022-07-29T00:25:20;3.10;;;1.70;;
32108;SDS011;18624;50.042;8.436;2022-07-29T00:27:47;2.20;;;1.42;;
32108;SDS011;18624;50.042;8.436;2022-07-29T00:30:13;7.25;;;2.10;;
32108;SDS011;18624;50.042;8.436;2022-07-29T00:32:40;3.40;;;2.25;;
32108;SDS011;18624;50.042;8.436;2022-07-29T00:35:06;1.92;;;1.52;;
32108;SDS011;18624;50.042;8.436;2022-07-29T00:38:13;3.42;;;1.60;;
32108;SDS011;18624;50.042;8.436;2022-07-29T00:40:40;4.40;;;1.45;;
32108;SDS011;18624;50.042;8.436;2022-07-29T00:43:09;2.97;;;1.55;;
32108;SDS011;18624;50.042;8.436;2022-07-29T00:45:37;3.28;;;2.20;;
32108;SDS011;18624;50.042;8.436;2022-07-29T00:48:04;5.72;;;2.83;;
32108;SDS011;18624;50.042;8.436;2022-07-29T00:50:32;3.22;;;1.75;;
32108;SDS011;18624;50.042;8.436;2022-07-29T00:52:58;2.28;;;1.70;;
32108;SDS011;18624;50.042;8.436;2022-07-29T00:55:26;5.72;;;2.03;;
32108;SDS011;18624;50.042;8.436;2022-07-29T00:57:52;2.75;;;1.83;;
32108;SDS011;18624;50.042;8.436;2022-07-29T01:00:20;4.10;;;1.85;;
32108;SDS011;18624;50.042;8.436;2022-07-29T01:02:49;4.20;;;1.92;;
32108;SDS011;18624;50.042;8.436;2022-07-29T01:05:17;4.32;;;1.80;;
32108;SDS011;18624;50.042;8.436;2022-07-29T01:07:44;3.13;;;2.05;;
32108;SDS011;18624;50.042;8.436;2022-07-29T01:10:13;4.55;;;1.80;;
32108;SDS011;18624;50.042;8.436;2022-07-29T01:12:40;4.47;;;1.80;;
32108;SDS011;18624;50.042;8.436;2022-07-29T01:15:09;3.20;;;1.88;;
32108;SDS011;18624;50.042;8.436;2022-07-29T01:17:44;2.95;;;1.60;;
32108;SDS011;18624;50.042;8.436;2022-07-29T01:20:36;2.67;;;1.92;;
32108;SDS011;18624;50.042;8.436;2022-07-29T01:23:30;3.42;;;2.22;;
32108;SDS011;18624;50.042;8.436;2022-07-29T01:26:06;4.95;;;2.40;;
32108;SDS011;18624;50.042;8.436;2022-07-29T01:29:00;4.28;;;1.85;;
32108;SDS011;18624;50.042;8.436;2022-07-29T01:31:35;2.92;;;1.90;;
32108;SDS011;18624;50.042;8.436;2022-07-29T01:37:39;5.45;;;2.45;;
32108;SDS011;18624;50.042;8.436;2022-07-29T01:40:19;7.57;;;2.75;;
32108;SDS011;18624;50.042;8.436;2022-07-29T01:42:49;1.92;;;1.60;;
32108;SDS011;18624;50.042;8.436;2022-07-29T01:45:23;3.65;;;2.88;;
32108;SDS011;18624;50.042;8.436;2022-07-29T01:50:38;2.28;;;2.00;;
32108;SDS011;18624;50.042;8.436;2022-07-29T01:53:10;4.82;;;2.60;;
32108;SDS011;18624;50.042;8.436;2022-07-29T01:55:40;5.88;;;2.35;;
32108;SDS011;18624;50.042;8.436;2022-07-29T01:58:10;4.50;;;2.17;;
32108;SDS011;18624;50.042;8.436;2022-07-29T02:00:38;2.80;;;2.13;;
32108;SDS011;18624;50.042;8.436;2022-07-29T02:03:09;7.03;;;3.13;;
32108;SDS011;18624;50.042;8.436;2022-07-29T02:05:38;3.85;;;2.35;;
32108;SDS011;18624;50.042;8.436;2022-07-29T02:08:06;3.90;;;2.45;;
32108;SDS011;18624;50.042;8.436;2022-07-29T02:10:35;4.35;;;2.33;;
32108;SDS011;18624;50.042;8.436;2022-07-29T02:13:04;7.80;;;2.70;;
32108;SDS011;18624;50.042;8.436;2022-07-29T02:15:33;5.88;;;2.53;;
32108;SDS011;18624;50.042;8.436;2022-07-29T02:18:02;2.88;;;2.53;;
32108;SDS011;18624;50.042;8.436;2022-07-29T02:20:33;5.90;;;2.72;;
32108;SDS011;18624;50.042;8.436;2022-07-29T02:23:01;3.97;;;2.50;;
32108;SDS011;18624;50.042;8.436;2022-07-29T02:25:29;3.60;;;2.50;;
32108;SDS011;18624;50.042;8.436;2022-07-29T02:28:03;4.10;;;2.28;;
32108;SDS011;18624;50.042;8.436;2022-07-29T02:30:32;4.90;;;2.85;;
32108;SDS011;18624;50.042;8.436;2022-07-29T02:33:02;4.55;;;2.55;;
32108;SDS011;18624;50.042;8.436;2022-07-29T02:35:31;5.13;;;2.55;;
32108;SDS011;18624;50.042;8.436;2022-07-29T02:38:00;4.57;;;3.05;;
32108;SDS011;18624;50.042;8.436;2022-07-29T02:40:47;3.33;;;2.28;;
32108;SDS011;18624;50.042;8.436;2022-07-29T02:43:16;5.35;;;2.60;;
32108;SDS011;18624;50.042;8.436;2022-07-29T02:45:44;9.70;;;2.38;;
32108;SDS011;18624;50.042;8.436;2022-07-29T02:48:17;5.10;;;2.47;;
32108;SDS011;18624;50.042;8.436;2022-07-29T02:50:49;3.95;;;2.10;;
32108;SDS011;18624;50.042;8.436;2022-07-29T02:53:24;4.88;;;2.45;;
32108;SDS011;18624;50.042;8.436;2022-07-29T02:56:00;5.00;;;3.15;;
32108;SDS011;18624;50.042;8.436;2022-07-29T02:58:31;3.80;;;2.40;;
32108;SDS011;18624;50.042;8.436;2022-07-29T03:01:01;4.22;;;2.38;;
32108;SDS011;18624;50.042;8.436;2022-07-29T03:03:33;4.43;;;2.07;;
32108;SDS011;18624;50.042;8.436;2022-07-29T03:06:02;6.10;;;2.40;;
32108;SDS011;18624;50.042;8.436;2022-07-29T03:08:29;4.95;;;2.60;;
32108;SDS011;18624;50.042;8.436;2022-07-29T03:10:58;5.13;;;2.75;;
32108;SDS011;18624;50.042;8.436;2022-07-29T03:13:27;4.97;;;2.58;;
32108;SDS011;18624;50.042;8.436;2022-07-29T03:15:55;4.50;;;2.53;;
32108;SDS011;18624;50.042;8.436;2022-07-29T03:18:23;2.28;;;2.08;;
32108;SDS011;18624;50.042;8.436;2022-07-29T03:20:50;2.83;;;2.15;;
32108;SDS011;18624;50.042;8.436;2022-07-29T03:23:20;5.05;;;2.63;;
32108;SDS011;18624;50.042;8.436;2022-07-29T03:25:52;6.45;;;2.63;;
32108;SDS011;18624;50.042;8.436;2022-07-29T03:28:20;4.10;;;2.20;;
32108;SDS011;18624;50.042;8.436;2022-07-29T03:30:47;4.65;;;2.25;;
32108;SDS011;18624;50.042;8.436;2022-07-29T03:33:14;5.47;;;2.97;;
32108;SDS011;18624;50.042;8.436;2022-07-29T03:35:41;5.03;;;2.95;;
32108;SDS011;18624;50.042;8.436;2022-07-29T03:38:08;3.88;;;2.50;;
32108;SDS011;18624;50.042;8.436;2022-07-29T03:40:38;4.00;;;2.60;;
32108;SDS011;18624;50.042;8.436;2022-07-29T03:43:09;3.97;;;3.45;;
32108;SDS011;18624;50.042;8.436;2022-07-29T03:45:37;4.05;;;2.75;;
32108;SDS011;18624;50.042;8.436;2022-07-29T03:48:08;3.17;;;2.67;;
32108;SDS011;18624;50.042;8.436;2022-07-29T03:50:38;3.65;;;2.75;;
32108;SDS011;18624;50.042;8.436;2022-07-29T03:53:05;5.95;;;3.42;;
32108;SDS011;18624;50.042;8.436;2022-07-29T03:55:33;4.57;;;3.30;;
32108;SDS011;18624;50.042;8.436;2022-07-29T03:58:14;3.78;;;2.65;;
32108;SDS011;18624;50.042;8.436;2022-07-29T04:00:41;8.93;;;3.15;;
32108;SDS011;18624;50.042;8.436;2022-07-29T04:03:09;4.18;;;3.00;;
32108;SDS011;18624;50.042;8.436;2022-07-29T04:05:37;6.30;;;2.80;;
32108;SDS011;18624;50.042;8.436;2022-07-29T04:08:03;7.70;;;3.20;;
32108;SDS011;18624;50.042;8.436;2022-07-29T04:10:30;3.47;;;2.88;;
32108;SDS011;18624;50.042;8.436;2022-07-29T04:13:00;4.22;;;3.38;;
32108;SDS011;18624;50.042;8.436;2022-07-29T04:15:27;4.07;;;3.67;;
32108;SDS011;18624;50.042;8.436;2022-07-29T04:17:56;3.25;;;2.85;;
32108;SDS011;18624;50.042;8.436;2022-07-29T04:20:23;4.38;;;3.40;;
32108;SDS011;18624;50.042;8.436;2022-07-29T04:22:49;6.68;;;3.15;;
32108;SDS011;18624;50.042;8.436;2022-07-29T04:25:16;4.13;;;3.50;;
32108;SDS011;18624;50.042;8.436;2022-07-29T04:27:42;5.20;;;3.53;;
32108;SDS011;18624;50.042;8.436;2022-07-29T04:30:26;4.35;;;2.88;;
32108;SDS011;18624;50.042;8.436;2022-07-29T04:32:52;5.25;;;3.60;;
32108;SDS011;18624;50.042;8.436;2022-07-29T04:35:19;3.25;;;2.95;;
32108;SDS011;18624;50.042;8.436;2022-07-29T04:37:46;4.78;;;3.53;;
32108;SDS011;18624;50.042;8.436;2022-07-29T04:40:12;4.93;;;3.30;;
32108;SDS011;18624;50.042;8.436;2022-07-29T04:42:39;7.60;;;3.85;;
32108;SDS011;18624;50.042;8.436;2022-07-29T04:45:13;3.65;;;2.95;;
32108;SDS011;18624;50.042;8.436;2022-07-29T04:47:39;5.68;;;3.10;;
32108;SDS011;18624;50.042;8.436;2022-07-29T04:50:06;6.22;;;3.38;;
32108;SDS011;18624;50.042;8.436;2022-07-29T04:52:34;5.60;;;2.85;;
32108;SDS011;18624;50.042;8.436;2022-07-29T04:55:01;4.68;;;3.28;;
32108;SDS011;18624;50.042;8.436;2022-07-29T04:57:30;3.30;;;3.00;;
32108;SDS011;18624;50.042;8.436;2022-07-29T04:59:56;4.07;;;3.50;;
32108;SDS011;18624;50.042;8.436;2022-07-29T05:02:23;6.22;;;3.25;;
32108;SDS011;18624;50.042;8.436;2022-07-29T05:04:49;4.40;;;3.25;;
32108;SDS011;18624;50.042;8.436;2022-07-29T05:07:16;4.50;;;3.80;;
32108;SDS011;18624;50.042;8.436;2022-07-29T05:09:43;3.85;;;3.40;;
32108;SDS011;18624;50.042;8.436;2022-07-29T05:12:09;7.13;;;4.50;;
32108;SDS011;18624;50.042;8.436;2022-07-29T05:14:36;8.45;;;3.00;;
32108;SDS011;18624;50.042;8.436;2022-07-29T05:17:03;3.90;;;3.03;;
32108;SDS011;18624;50.042;8.436;2022-07-29T05:19:29;4.53;;;3.25;;
32108;SDS011;18624;50.042;8.436;2022-07-29T05:21:56;5.30;;;3.80;;
32108;SDS011;18624;50.042;8.436;2022-07-29T05:24:23;5.90;;;3.15;;
32108;SDS011;18624;50.042;8.436;2022-07-29T05:26:49;4.13;;;3.25;;
32108;SDS011;18624;50.042;8.436;2022-07-29T05:29:15;10.07;;;4.10;;
32108;SDS011;18624;50.042;8.436;2022-07-29T05:32:02;6.30;;;3.10;;
32108;SDS011;18624;50.042;8.436;2022-07-29T05:34:30;5.20;;;3.63;;
32108;SDS011;18624;50.042;8.436;2022-07-29T05:36:56;6.00;;;3.75;;
32108;SDS011;18624;50.042;8.436;2022-07-29T05:39:23;5.97;;;3.42;;
32108;SDS011;18624;50.042;8.436;2022-07-29T05:42:09;9.93;;;3.40;;
32108;SDS011;18624;50.042;8.436;2022-07-29T05:44:37;5.75;;;3.38;;
32108;SDS011;18624;50.042;8.436;2022-07-29T05:47:04;6.30;;;3.35;;
32108;SDS011;18624;50.042;8.436;2022-07-29T05:49:30;5.43;;;2.90;;
32108;SDS011;18624;50.042;8.436;2022-07-29T05:51:57;10.10;;;3.33;;
32108;SDS011;18624;50.042;8.436;2022-07-29T05:54:24;5.10;;;3.03;;
32108;SDS011;18624;50.042;8.436;2022-07-29T05:56:51;8.07;;;3.05;;
32108;SDS011;18624;50.042;8.436;2022-07-29T05:59:17;7.25;;;3.00;;
32108;SDS011;18624;50.042;8.436;2022-07-29T06:01:44;9.52;;;2.88;;
32108;SDS011;18624;50.042;8.436;2022-07-29T06:04:11;7.47;;;2.90;;
32108;SDS011;18624;50.042;8.436;2022-07-29T06:06:38;7.57;;;2.72;;
32108;SDS011;18624;50.042;8.436;2022-07-29T06:09:04;4.68;;;2.42;;
32108;SDS011;18624;50.042;8.436;2022-07-29T06:11:37;3.88;;;2.00;;
32108;SDS011;18624;50.042;8.436;2022-07-29T06:14:04;6.25;;;3.17;;
32108;SDS011;18624;50.042;8.436;2022-07-29T06:16:30;6.78;;;4.18;;
32108;SDS011;18624;50.042;8.436;2022-07-29T06:18:57;5.90;;;2.38;;
32108;SDS011;18624;50.042;8.436;2022-07-29T06:21:23;7.25;;;2.80;;
32108;SDS011;18624;50.042;8.436;2022-07-29T06:23:50;5.32;;;3.03;;
32108;SDS011;18624;50.042;8.436;2022-07-29T06:26:16;3.83;;;2.67;;
32108;SDS011;18624;50.042;8.436;2022-07-29T06:28:43;5.38;;;2.50;;
32108;SDS011;18624;50.042;8.436;2022-07-29T06:31:09;6.63;;;2.83;;
32108;SDS011;18624;50.042;8.436;2022-07-29T06:33:36;8.45;;;2.78;;
32108;SDS011;18624;50.042;8.436;2022-07-29T06:36:03;5.40;;;2.90;;
32108;SDS011;18624;50.042;8.436;2022-07-29T06:38:32;7.57;;;2.60;;
32108;SDS011;18624;50.042;8.436;2022-07-29T06:41:07;12.23;;;3.85;;
32108;SDS011;18624;50.042;8.436;2022-07-29T06:43:39;6.80;;;2.78;;
32108;SDS011;18624;50.042;8.436;2022-07-29T06:46:16;8.85;;;2.80;;
32108;SDS011;18624;50.042;8.436;2022-07-29T06:48:44;8.05;;;3.42;;
32108;SDS011;18624;50.042;8.436;2022-07-29T06:51:11;10.98;;;3.20;;
32108;SDS011;18624;50.042;8.436;2022-07-29T06:53:38;6.93;;;2.83;;
32108;SDS011;18624;50.042;8.436;2022-07-29T06:56:24;9.73;;;3.45;;
32108;SDS011;18624;50.042;8.436;2022-07-29T06:58:51;9.90;;;2.95;;
32108;SDS011;18624;50.042;8.436;2022-07-29T07:01:17;4.93;;;2.70;;
32108;SDS011;18624;50.042;8.436;2022-07-29T07:03:44;4.88;;;2.72;;
32108;SDS011;18624;50.042;8.436;2022-07-29T07:06:10;11.48;;;3.58;;
32108;SDS011;18624;50.042;8.436;2022-07-29T07:08:40;14.48;;;3.85;;
32108;SDS011;18624;50.042;8.436;2022-07-29T07:11:06;10.02;;;3.63;;
32108;SDS011;18624;50.042;8.436;2022-07-29T07:13:33;7.35;;;3.80;;
32108;SDS011;18624;50.042;8.436;2022-07-29T07:16:02;4.72;;;3.13;;
32108;SDS011;18624;50.042;8.436;2022-07-29T07:18:29;6.00;;;3.50;;
32108;SDS011;18624;50.042;8.436;2022-07-29T07:20:56;3.47;;;2.40;;
32108;SDS011;18624;50.042;8.436;2022-07-29T07:23:23;5.57;;;2.67;;
32108;SDS011;18624;50.042;8.436;2022-07-29T07:25:50;7.45;;;2.92;;
32108;SDS011;18624;50.042;8.436;2022-07-29T07:28:17;4.95;;;2.95;;
32108;SDS011;18624;50.042;8.436;2022-07-29T07:30:49;3.95;;;2.42;;
32108;SDS011;18624;50.042;8.436;2022-07-29T07:33:16;3.40;;;2.45;;
32108;SDS011;18624;50.042;8.436;2022-07-29T07:35:42;5.45;;;2.42;;
32108;SDS011;18624;50.042;8.436;2022-07-29T07:38:10;4.28;;;2.97;;
32108;SDS011;18624;50.042;8.436;2022-07-29T07:40:36;3.83;;;2.45;;
32108;SDS011;18624;50.042;8.436;2022-07-29T07:43:03;4.00;;;2.63;;
32108;SDS011;18624;50.042;8.436;2022-07-29T07:45:30;3.72;;;2.45;;
32108;SDS011;18624;50.042;8.436;2022-07-29T07:47:58;3.97;;;2.60;;
32108;SDS011;18624;50.042;8.436;2022-07-29T07:50:25;4.97;;;2.85;;
32108;SDS011;18624;50.042;8.436;2022-07-29T07:52:53;5.78;;;3.45;;
32108;SDS011;18624;50.042;8.436;2022-07-29T07:55:23;4.72;;;2.95;;
32108;SDS011;18624;50.042;8.436;2022-07-29T07:57:51;7.57;;;2.78;;
32108;SDS011;18624;50.042;8.436;2022-07-29T08:00:18;5.50;;;2.97;;
32108;SDS011;18624;50.042;8.436;2022-07-29T08:02:48;4.68;;;2.50;;
32108;SDS011;18624;50.042;8.436;2022-07-29T08:05:16;7.68;;;2.85;;
32108;SDS011;18624;50.042;8.436;2022-07-29T08:07:46;5.03;;;2.72;;
32108;SDS011;18624;50.042;8.436;2022-07-29T08:10:14;4.88;;;2.67;;
32108;SDS011;18624;50.042;8.436;2022-07-29T08:13:08;5.65;;;2.85;;
32108;SDS011;18624;50.042;8.436;2022-07-29T08:15:36;5.25;;;2.60;;
32108;SDS011;18624;50.042;8.436;2022-07-29T08:18:05;3.42;;;2.40;;
32108;SDS011;18624;50.042;8.436;2022-07-29T08:20:34;3.88;;;2.40;;
32108;SDS011;18624;50.042;8.436;2022-07-29T08:23:02;4.85;;;2.92;;
32108;SDS011;18624;50.042;8.436;2022-07-29T08:25:28;7.60;;;2.80;;
32108;SDS011;18624;50.042;8.436;2022-07-29T08:27:55;3.67;;;2.58;;
32108;SDS011;18624;50.042;8.436;2022-07-29T08:30:21;5.18;;;2.60;;
32108;SDS011;18624;50.042;8.436;2022-07-29T08:32:48;6.40;;;2.92;;
32108;SDS011;18624;50.042;8.436;2022-07-29T08:35:20;3.95;;;2.30;;
32108;SDS011;18624;50.042;8.436;2022-07-29T08:37:47;4.30;;;3.03;;
32108;SDS011;18624;50.042;8.436;2022-07-29T08:40:14;4.18;;;3.08;;
32108;SDS011;18624;50.042;8.436;2022-07-29T08:42:41;3.42;;;2.78;;
32108;SDS011;18624;50.042;8.436;2022-07-29T08:45:07;5.88;;;2.85;;
32108;SDS011;18624;50.042;8.436;2022-07-29T08:47:34;4.03;;;2.65;;
32108;SDS011;18624;50.042;8.436;2022-07-29T08:50:06;6.18;;;3.17;;
32108;SDS011;18624;50.042;8.436;2022-07-29T08:52:35;7.72;;;3.47;;
32108;SDS011;18624;50.042;8.436;2022-07-29T08:55:04;6.65;;;3.17;;
32108;SDS011;18624;50.042;8.436;2022-07-29T08:57:32;4.55;;;3.13;;
32108;SDS011;18624;50.042;8.436;2022-07-29T09:00:03;4.18;;;2.80;;
32108;SDS011;18624;50.042;8.436;2022-07-29T09:02:39;5.70;;;2.63;;
32108;SDS011;18624;50.042;8.436;2022-07-29T09:05:07;6.97;;;2.67;;
32108;SDS011;18624;50.042;8.436;2022-07-29T09:07:34;8.15;;;2.90;;
32108;SDS011;18624;50.042;8.436;2022-07-29T09:10:01;13.07;;;3.83;;
32108;SDS011;18624;50.042;8.436;2022-07-29T09:12:29;4.75;;;2.63;;
32108;SDS011;18624;50.042;8.436;2022-07-29T09:15:03;6.32;;;3.00;;
32108;SDS011;18624;50.042;8.436;2022-07-29T09:17:39;7.72;;;2.70;;
32108;SDS011;18624;50.042;8.436;2022-07-29T09:20:16;5.50;;;2.90;;
32108;SDS011;18624;50.042;8.436;2022-07-29T09:22:44;5.17;;;3.13;;
32108;SDS011;18624;50.042;8.436;2022-07-29T09:25:34;5.22;;;2.95;;
32108;SDS011;18624;50.042;8.436;2022-07-29T09:28:09;8.27;;;3.25;;
32108;SDS011;18624;50.042;8.436;2022-07-29T09:30:58;5.60;;;2.90;;
32108;SDS011;18624;50.042;8.436;2022-07-29T09:33:30;5.85;;;3.00;;
32108;SDS011;18624;50.042;8.436;2022-07-29T09:36:04;6.35;;;3.22;;
32108;SDS011;18624;50.042;8.436;2022-07-29T09:38:32;4.63;;;2.97;;
32108;SDS011;18624;50.042;8.436;2022-07-29T09:40:59;3.95;;;2.63;;
32108;SDS011;18624;50.042;8.436;2022-07-29T09:43:31;4.63;;;3.00;;
32108;SDS011;18624;50.042;8.436;2022-07-29T09:46:11;3.95;;;2.53;;
32108;SDS011;18624;50.042;8.436;2022-07-29T09:48:38;4.07;;;2.63;;
32108;SDS011;18624;50.042;8.436;2022-07-29T09:51:05;5.22;;;2.80;;
32108;SDS011;18624;50.042;8.436;2022-07-29T09:53:46;4.60;;;2.80;;
32108;SDS011;18624;50.042;8.436;2022-07-29T09:56:13;4.35;;;2.83;;
32108;SDS011;18624;50.042;8.436;2022-07-29T09:58:40;3.97;;;2.90;;
32108;SDS011;18624;50.042;8.436;2022-07-29T10:01:06;5.35;;;2.92;;
32108;SDS011;18624;50.042;8.436;2022-07-29T10:03:33;5.53;;;3.22;;
32108;SDS011;18624;50.042;8.436;2022-07-29T10:06:16;4.97;;;2.92;;
32108;SDS011;18624;50.042;8.436;2022-07-29T10:08:43;4.43;;;3.17;;
32108;SDS011;18624;50.042;8.436;2022-07-29T10:11:10;3.63;;;2.50;;
32108;SDS011;18624;50.042;8.436;2022-07-29T10:13:40;6.97;;;3.05;;
32108;SDS011;18624;50.042;8.436;2022-07-29T10:16:07;4.75;;;4.07;;
32108;SDS011;18624;50.042;8.436;2022-07-29T10:18:34;6.13;;;2.92;;
32108;SDS011;18624;50.042;8.436;2022-07-29T10:21:03;3.53;;;3.10;;
32108;SDS011;18624;50.042;8.436;2022-07-29T10:23:30;3.72;;;3.42;;
32108;SDS011;18624;50.042;8.436;2022-07-29T10:26:12;5.78;;;3.00;;
32108;SDS011;18624;50.042;8.436;2022-07-29T10:28:40;5.00;;;3.20;;
32108;SDS011;18624;50.042;8.436;2022-07-29T10:31:08;3.80;;;3.50;;
32108;SDS011;18624;50.042;8.436;2022-07-29T10:37:06;3.67;;;2.80;;
32108;SDS011;18624;50.042;8.436;2022-07-29T10:39:58;7.03;;;3.03;;
32108;SDS011;18624;50.042;8.436;2022-07-29T10:42:53;5.32;;;3.60;;
32108;SDS011;18624;50.042;8.436;2022-07-29T10:45:21;3.38;;;3.05;;
32108;SDS011;18624;50.042;8.436;2022-07-29T10:47:48;5.10;;;3.15;;
32108;SDS011;18624;50.042;8.436;2022-07-29T10:50:55;5.93;;;3.10;;
32108;SDS011;18624;50.042;8.436;2022-07-29T10:56:28;4.25;;;3.05;;
32108;SDS011;18624;50.042;8.436;2022-07-29T11:01:47;7.82;;;3.45;;
32108;SDS011;18624;50.042;8.436;2022-07-29T11:07:12;5.78;;;2.90;;
32108;SDS011;18624;50.042;8.436;2022-07-29T11:09:40;4.97;;;3.33;;
32108;SDS011;18624;50.042;8.436;2022-07-29T11:12:45;4.53;;;3.45;;
32108;SDS011;18624;50.042;8.436;2022-07-29T11:15:05;3.72;;;3.28;;
32108;SDS011;18624;50.042;8.436;2022-07-29T11:20:42;5.47;;;3.40;;
32108;SDS011;18624;50.042;8.436;2022-07-29T11:23:22;5.00;;;3.22;;
32108;SDS011;18624;50.042;8.436;2022-07-29T11:28:39;4.07;;;3.30;;
32108;SDS011;18624;50.042;8.436;2022-07-29T11:31:37;7.28;;;3.72;;
32108;SDS011;18624;50.042;8.436;2022-07-29T11:34:16;7.07;;;3.75;;
32108;SDS011;18624;50.042;8.436;2022-07-29T11:39:32;6.22;;;3.92;;
32108;SDS011;18624;50.042;8.436;2022-07-29T11:44:58;6.18;;;3.95;;
32108;SDS011;18624;50.042;8.436;2022-07-29T11:47:56;3.72;;;3.08;;
32108;SDS011;18624;50.042;8.436;2022-07-29T11:50:44;3.67;;;3.38;;
32108;SDS011;18624;50.042;8.436;2022-07-29T11:53:13;4.47;;;3.28;;
32108;SDS011;18624;50.042;8.436;2022-07-29T11:55:41;3.50;;;3.05;;
32108;SDS011;18624;50.042;8.436;2022-07-29T11:58:20;6.85;;;3.65;;
32108;SDS011;18624;50.042;8.436;2022-07-29T12:00:50;6.72;;;3.20;;
32108;SDS011;18624;50.042;8.436;2022-07-29T12:03:24;5.93;;;3.58;;
32108;SDS011;18624;50.042;8.436;2022-07-29T12:05:58;6.95;;;3.20;;
32108;SDS011;18624;50.042;8.436;2022-07-29T12:08:26;5.15;;;3.75;;
32108;SDS011;18624;50.042;8.436;2022-07-29T12:10:53;7.90;;;4.47;;
32108;SDS011;18624;50.042;8.436;2022-07-29T12:13:21;7.30;;;3.50;;
32108;SDS011;18624;50.042;8.436;2022-07-29T12:16:02;5.90;;;3.63;;
32108;SDS011;18624;50.042;8.436;2022-07-29T12:18:29;4.22;;;3.35;;
32108;SDS011;18624;50.042;8.436;2022-07-29T12:20:59;3.78;;;3.38;;
32108;SDS011;18624;50.042;8.436;2022-07-29T12:23:30;4.25;;;3.50;;
32108;SDS011;18624;50.042;8.436;2022-07-29T12:26:03;3.58;;;3.17;;
32108;SDS011;18624;50.042;8.436;2022-07-29T12:28:37;5.50;;;3.92;;
32108;SDS011;18624;50.042;8.436;2022-07-29T12:31:04;4.63;;;3.55;;
32108;SDS011;18624;50.042;8.436;2022-07-29T12:33:33;3.53;;;3.22;;
32108;SDS011;18624;50.042;8.436;2022-07-29T12:36:01;5.05;;;3.22;;
32108;SDS011;18624;50.042;8.436;2022-07-29T12:38:37;4.80;;;3.40;;
32108;SDS011;18624;50.042;8.436;2022-07-29T12:41:06;5.03;;;3.70;;
32108;SDS011;18624;50.042;8.436;2022-07-29T12:43:32;5.45;;;3.75;;
32108;SDS011;18624;50.042;8.436;2022-07-29T12:46:10;4.55;;;3.63;;
32108;SDS011;18624;50.042;8.436;2022-07-29T12:48:39;3.65;;;3.10;;
32108;SDS011;18624;50.042;8.436;2022-07-29T12:51:07;5.40;;;3.50;;
32108;SDS011;18624;50.042;8.436;2022-07-29T12:53:35;5.53;;;3.50;;
32108;SDS011;18624;50.042;8.436;2022-07-29T12:56:03;4.18;;;3.50;;
32108;SDS011;18624;50.042;8.436;2022-07-29T12:58:50;4.57;;;3.65;;
32108;SDS011;18624;50.042;8.436;2022-07-29T13:01:18;3.92;;;3.30;;
32108;SDS011;18624;50.042;8.436;2022-07-29T13:03:56;5.78;;;3.70;;
32108;SDS011;18624;50.042;8.436;2022-07-29T13:06:29;5.50;;;3.70;;
32108;SDS011;18624;50.042;8.436;2022-07-29T13:11:51;4.55;;;3.80;;
32108;SDS011;18624;50.042;8.436;2022-07-29T13:14:34;5.32;;;4.30;;
32108;SDS011;18624;50.042;8.436;2022-07-29T13:19:40;3.33;;;3.03;;
32108;SDS011;18624;50.042;8.436;2022-07-29T13:22:09;5.43;;;4.93;;
32108;SDS011;18624;50.042;8.436;2022-07-29T13:27:34;4.75;;;3.42;;
32108;SDS011;18624;50.042;8.436;2022-07-29T13:30:06;3.88;;;3.30;;
32108;SDS011;18624;50.042;8.436;2022-07-29T13:32:34;4.60;;;3.25;;
32108;SDS011;18624;50.042;8.436;2022-07-29T13:35:03;6.15;;;3.80;;
32108;SDS011;18624;50.042;8.436;2022-07-29T13:37:32;4.03;;;3.63;;
32108;SDS011;18624;50.042;8.436;2022-07-29T13:40:01;4.68;;;3.60;;
32108;SDS011;18624;50.042;8.436;2022-07-29T13:42:29;5.15;;;3.72;;
32108;SDS011;18624;50.042;8.436;2022-07-29T13:44:56;5.50;;;3.63;;
32108;SDS011;18624;50.042;8.436;2022-07-29T13:47:23;4.63;;;3.25;;
32108;SDS011;18624;50.042;8.436;2022-07-29T13:49:58;9.60;;;3.58;;
32108;SDS011;18624;50.042;8.436;2022-07-29T13:52:31;4.40;;;3.72;;
32108;SDS011;18624;50.042;8.436;2022-07-29T13:54:57;7.22;;;3.97;;
32108;SDS011;18624;50.042;8.436;2022-07-29T13:57:24;3.88;;;3.58;;
32108;SDS011;18624;50.042;8.436;2022-07-29T13:59:50;5.88;;;3.65;;
32108;SDS011;18624;50.042;8.436;2022-07-29T14:02:19;4.07;;;3.67;;
32108;SDS011;18624;50.042;8.436;2022-07-29T14:04:50;4.22;;;3.83;;
32108;SDS011;18624;50.042;8.436;2022-07-29T14:07:17;5.78;;;3.17;;
32108;SDS011;18624;50.042;8.436;2022-07-29T14:09:43;3.92;;;3.40;;
32108;SDS011;18624;50.042;8.436;2022-07-29T14:12:10;5.53;;;3.53;;
32108;SDS011;18624;50.042;8.436;2022-07-29T14:14:36;6.30;;;3.55;;
32108;SDS011;18624;50.042;8.436;2022-07-29T14:17:03;3.63;;;3.33;;
32108;SDS011;18624;50.042;8.436;2022-07-29T14:19:32;3.85;;;3.45;;
32108;SDS011;18624;50.042;8.436;2022-07-29T14:22:05;5.05;;;4.55;;
32108;SDS011;18624;50.042;8.436;2022-07-29T14:24:34;4.30;;;3.75;;
32108;SDS011;18624;50.042;8.436;2022-07-29T14:27:03;4.13;;;3.83;;
32108;SDS011;18624;50.042;8.436;2022-07-29T14:29:33;4.70;;;4.13;;
32108;SDS011;18624;50.042;8.436;2022-07-29T14:32:04;3.80;;;3.50;;
32108;SDS011;18624;50.042;8.436;2022-07-29T14:34:32;3.72;;;3.20;;
32108;SDS011;18624;50.042;8.436;2022-07-29T14:36:59;3.78;;;3.17;;
32108;SDS011;18624;50.042;8.436;2022-07-29T14:39:26;4.47;;;2.75;;
32108;SDS011;18624;50.042;8.436;2022-07-29T14:41:57;3.78;;;3.40;;
32108;SDS011;18624;50.042;8.436;2022-07-29T14:44:25;3.38;;;2.83;;
32108;SDS011;18624;50.042;8.436;2022-07-29T14:46:57;5.05;;;3.33;;
32108;SDS011;18624;50.042;8.436;2022-07-29T14:49:33;3.80;;;3.15;;
32108;SDS011;18624;50.042;8.436;2022-07-29T14:52:00;3.45;;;3.00;;
32108;SDS011;18624;50.042;8.436;2022-07-29T14:54:27;4.00;;;3.10;;
32108;SDS011;18624;50.042;8.436;2022-07-29T14:56:53;7.50;;;3.38;;
32108;SDS011;18624;50.042;8.436;2022-07-29T14:59:22;5.20;;;2.90;;
32108;SDS011;18624;50.042;8.436;2022-07-29T15:01:49;4.38;;;3.35;;
32108;SDS011;18624;50.042;8.436;2022-07-29T15:04:16;4.30;;;3.75;;
32108;SDS011;18624;50.042;8.436;2022-07-29T15:06:42;4.38;;;3.05;;
32108;SDS011;18624;50.042;8.436;2022-07-29T15:09:09;3.00;;;2.80;;
32108;SDS011;18624;50.042;8.436;2022-07-29T15:11:35;3.00;;;2.50;;
32108;SDS011;18624;50.042;8.436;2022-07-29T15:14:03;4.65;;;2.42;;
32108;SDS011;18624;50.042;8.436;2022-07-29T15:16:30;2.47;;;2.28;;
32108;SDS011;18624;50.042;8.436;2022-07-29T15:18:57;2.63;;;2.40;;
32108;SDS011;18624;50.042;8.436;2022-07-29T15:21:26;2.10;;;1.90;;
32108;SDS011;18624;50.042;8.436;2022-07-29T15:23:53;4.10;;;2.72;;
32108;SDS011;18624;50.042;8.436;2022-07-29T15:26:19;2.63;;;2.42;;
32108;SDS011;18624;50.042;8.436;2022-07-29T15:28:46;2.72;;;2.30;;
32108;SDS011;18624;50.042;8.436;2022-07-29T15:31:12;3.75;;;2.53;;
32108;SDS011;18624;50.042;8.436;2022-07-29T15:33:39;3.28;;;2.70;;
32108;SDS011;18624;50.042;8.436;2022-07-29T15:36:05;2.65;;;2.45;;
32108;SDS011;18624;50.042;8.436;2022-07-29T15:38:32;2.78;;;2.55;;
32108;SDS011;18624;50.042;8.436;2022-07-29T15:40:58;4.95;;;2.97;;
32108;SDS011;18624;50.042;8.436;2022-07-29T15:43:25;2.50;;;2.20;;